createdAt,value
2022-10-13T00:01:21.636Z,100.00
2022-10-13T00:03:50.451Z,100.00
2022-10-13T00:06:21.591Z,100.00
2022-10-13T00:08:50.198Z,100.00
2022-10-13T00:11:21.022Z,100.00
2022-10-13T00:13:50.609Z,100.00
2022-10-13T00:16:21.008Z,100.00
2022-10-13T00:18:49.700Z,100.00
2022-10-13T00:21:21.995Z,100.00
2022-10-13T00:23:50.368Z,100.00
2022-10-13T00:26:19.052Z,100.00
2022-10-13T00:28:52.003Z,100.00
2022-10-13T00:31:22.554Z,100.00
2022-10-13T00:33:50.884Z,100.00
2022-10-13T00:36:19.459Z,100.00
2022-10-13T00:38:49.268Z,100.00
2022-10-13T00:41:17.731Z,100.00
2022-10-13T00:43:52.236Z,100.00
2022-10-13T00:46:20.674Z,100.00
2022-10-13T00:48:50.158Z,100.00
2022-10-13T00:51:21.517Z,100.00
2022-10-13T00:53:51.691Z,100.00
2022-10-13T00:56:20.962Z,100.00
2022-10-13T00:58:49.800Z,100.00
2022-10-13T01:01:18.095Z,100.00
2022-10-13T01:03:46.526Z,100.00
2022-10-13T01:06:14.993Z,100.00
2022-10-13T01:08:43.212Z,100.00
2022-10-13T01:11:26.473Z,100.00
2022-10-13T01:13:59.451Z,100.00
2022-10-13T01:16:33.340Z,100.00
2022-10-13T01:19:15.888Z,100.00
2022-10-13T01:24:45.225Z,100.00
2022-10-13T01:27:47.187Z,100.00
2022-10-13T01:30:18.910Z,100.00
2022-10-13T01:32:58.725Z,100.00
2022-10-13T01:35:34.715Z,100.00
2022-10-13T01:38:08.011Z,100.00
2022-10-13T01:40:41.007Z,100.00
2022-10-13T01:43:12.616Z,100.00
2022-10-13T01:45:47.289Z,100.00
2022-10-13T01:48:16.741Z,100.00
2022-10-13T01:50:45.379Z,100.00
2022-10-13T01:53:15.227Z,100.00
2022-10-13T01:55:51.081Z,100.00
2022-10-13T01:58:19.347Z,100.00
2022-10-13T02:01:04.686Z,100.00
2022-10-13T02:03:39.472Z,100.00
2022-10-13T02:06:14.991Z,100.00
2022-10-13T02:08:47.102Z,100.00
2022-10-13T02:11:18.299Z,100.00
2022-10-13T02:13:54.151Z,100.00
2022-10-13T02:16:24.016Z,100.00
2022-10-13T02:18:52.487Z,100.00
2022-10-13T02:21:20.781Z,100.00
2022-10-13T02:23:49.104Z,100.00
2022-10-13T02:26:17.429Z,100.00
2022-10-13T02:28:45.941Z,100.00
2022-10-13T02:31:14.262Z,100.00
2022-10-13T02:33:43.851Z,100.00
2022-10-13T02:36:12.529Z,100.00
2022-10-13T02:38:40.747Z,100.00
2022-10-13T02:41:09.238Z,100.00
2022-10-13T02:43:38.738Z,100.00
2022-10-13T02:46:07.032Z,100.00
2022-10-13T02:48:35.309Z,100.00
2022-10-13T02:51:05.229Z,100.00
2022-10-13T02:53:33.592Z,100.00
2022-10-13T02:56:01.908Z,100.00
2022-10-13T02:58:30.119Z,100.00
2022-10-13T03:01:06.630Z,100.00
2022-10-13T03:03:35.363Z,100.00
2022-10-13T03:06:05.280Z,100.00
2022-10-13T03:08:34.558Z,100.00
2022-10-13T03:11:02.833Z,100.00
2022-10-13T03:13:31.022Z,100.00
2022-10-13T03:15:59.310Z,100.00
2022-10-13T03:18:27.660Z,100.00
2022-10-13T03:20:59.540Z,100.00
2022-10-13T03:23:29.292Z,100.00
2022-10-13T03:25:57.942Z,100.00
2022-10-13T03:28:26.222Z,100.00
2022-10-13T03:31:01.080Z,100.00
2022-10-13T03:33:29.629Z,100.00
2022-10-13T03:35:59.914Z,100.00
2022-10-13T03:38:29.843Z,100.00
2022-10-13T03:40:58.252Z,100.00
2022-10-13T03:43:26.646Z,100.00
2022-10-13T03:45:58.665Z,100.00
2022-10-13T03:48:27.848Z,100.00
2022-10-13T03:50:56.062Z,100.00
2022-10-13T03:53:24.213Z,100.00
2022-10-13T03:55:55.409Z,100.00
2022-10-13T03:58:25.514Z,100.00
2022-10-13T04:00:53.914Z,100.00
2022-10-13T04:03:22.482Z,100.00
2022-10-13T04:05:50.700Z,100.00
2022-10-13T04:08:18.982Z,100.00
2022-10-13T04:10:47.225Z,100.00
2022-10-13T04:13:16.816Z,100.00
2022-10-13T04:15:45.011Z,100.00
2022-10-13T04:18:13.302Z,100.00
2022-10-13T04:20:41.884Z,100.00
2022-10-13T04:23:10.150Z,100.00
2022-10-13T04:25:39.004Z,100.00
2022-10-13T04:28:08.134Z,100.00
2022-10-13T04:30:37.833Z,100.00
2022-10-13T04:33:06.368Z,100.00
2022-10-13T04:35:34.778Z,100.00
2022-10-13T04:38:03.008Z,100.00
2022-10-13T04:40:31.215Z,100.00
2022-10-13T04:42:59.852Z,100.00
2022-10-13T04:45:28.681Z,100.00
2022-10-13T04:47:58.370Z,100.00
2022-10-13T04:50:26.674Z,100.00
2022-10-13T04:52:54.888Z,100.00
2022-10-13T04:55:23.184Z,100.00
2022-10-13T04:57:51.398Z,100.00
2022-10-13T05:00:19.746Z,100.00
2022-10-13T05:02:48.012Z,100.00
2022-10-13T05:05:17.839Z,100.00
2022-10-13T05:07:46.176Z,100.00
2022-10-13T05:10:14.920Z,100.00
2022-10-13T05:12:43.142Z,100.00
2022-10-13T05:15:11.823Z,100.00
2022-10-13T05:17:40.207Z,100.00
2022-10-13T05:20:10.068Z,100.00
2022-10-13T05:22:39.712Z,100.00
2022-10-13T05:25:08.475Z,100.00
2022-10-13T05:27:36.727Z,100.00
2022-10-13T05:30:05.443Z,100.00
2022-10-13T05:32:35.786Z,100.00
2022-10-13T05:35:04.254Z,100.00
2022-10-13T05:37:32.585Z,100.00
2022-10-13T05:40:02.221Z,100.00
2022-10-13T05:42:30.926Z,100.00
2022-10-13T05:44:59.201Z,100.00
2022-10-13T05:47:28.311Z,100.00
2022-10-13T05:49:56.745Z,100.00
2022-10-13T05:52:25.807Z,100.00
2022-10-13T05:54:56.674Z,100.00
2022-10-13T05:57:29.193Z,100.00
2022-10-13T06:00:00.324Z,100.00
2022-10-13T06:02:34.952Z,100.00
2022-10-13T06:05:04.684Z,100.00
2022-10-13T06:07:32.959Z,100.00
2022-10-13T06:10:02.267Z,100.00
2022-10-13T06:12:31.809Z,100.00
2022-10-13T06:15:00.005Z,100.00
2022-10-13T06:17:28.372Z,100.00
2022-10-13T06:19:56.629Z,100.00
2022-10-13T06:22:24.903Z,100.00
2022-10-13T06:24:53.174Z,100.00
2022-10-13T06:27:21.453Z,100.00
2022-10-13T06:29:51.107Z,100.00
2022-10-13T06:32:19.649Z,100.00
2022-10-13T06:34:48.122Z,100.00
2022-10-13T06:37:16.482Z,100.00
2022-10-13T06:39:44.806Z,100.00
2022-10-13T06:42:13.069Z,100.00
2022-10-13T06:44:41.482Z,100.00
2022-10-13T06:47:11.038Z,100.00
2022-10-13T06:49:39.250Z,100.00
2022-10-13T06:52:07.691Z,100.00
2022-10-13T06:54:35.973Z,100.00
2022-10-13T06:57:06.877Z,100.00
2022-10-13T06:59:35.308Z,100.00
2022-10-13T07:02:04.278Z,100.00
2022-10-13T07:04:33.891Z,100.00
2022-10-13T07:07:02.152Z,100.00
2022-10-13T07:09:30.455Z,100.00
2022-10-13T07:11:58.851Z,100.00
2022-10-13T07:14:27.442Z,100.00
2022-10-13T07:16:55.714Z,100.00
2022-10-13T07:19:24.018Z,100.00
2022-10-13T07:21:54.269Z,100.00
2022-10-13T07:24:22.746Z,100.00
2022-10-13T07:26:51.044Z,100.00
2022-10-13T07:29:19.507Z,100.00
2022-10-13T07:31:48.141Z,100.00
2022-10-13T07:34:16.885Z,100.00
2022-10-13T07:36:45.164Z,100.00
2022-10-13T07:39:14.869Z,100.00
2022-10-13T07:41:46.357Z,100.00
2022-10-13T07:44:17.251Z,100.00
2022-10-13T07:46:45.739Z,100.00
2022-10-13T07:49:16.169Z,100.00
2022-10-13T07:51:45.195Z,100.00
2022-10-13T07:54:14.817Z,100.00
2022-10-13T07:56:43.068Z,100.00
2022-10-13T07:59:11.363Z,100.00
2022-10-13T08:01:41.136Z,100.00
2022-10-13T08:04:09.538Z,100.00
2022-10-13T08:06:38.016Z,100.00
2022-10-13T08:09:06.911Z,100.00
2022-10-13T08:11:36.732Z,100.00
2022-10-13T08:14:05.153Z,100.00
2022-10-13T08:16:33.905Z,100.00
2022-10-13T08:19:02.256Z,100.00
2022-10-13T08:21:56.756Z,100.00
2022-10-13T08:24:19.465Z,100.00
2022-10-13T08:26:49.635Z,100.00
2022-10-13T08:29:22.875Z,100.00
2022-10-13T08:31:53.101Z,100.00
2022-10-13T08:34:22.334Z,100.00
2022-10-13T08:36:53.529Z,100.00
2022-10-13T08:39:22.235Z,100.00
2022-10-13T08:41:52.187Z,100.00
2022-10-13T08:47:19.111Z,100.00
2022-10-13T08:49:47.693Z,100.00
2022-10-13T08:52:20.405Z,100.00
2022-10-13T08:54:49.167Z,100.00
2022-10-13T08:57:19.413Z,100.00
2022-10-13T08:59:48.536Z,100.00
2022-10-13T09:02:24.140Z,100.00
2022-10-13T09:04:53.773Z,100.00
2022-10-13T09:07:24.340Z,100.00
2022-10-13T09:09:53.582Z,100.00
2022-10-13T09:12:27.499Z,100.00
2022-10-13T09:15:01.488Z,100.00
2022-10-13T09:17:30.703Z,100.00
2022-10-13T09:20:01.014Z,100.00
2022-10-13T09:22:30.693Z,100.00
2022-10-13T09:25:18.746Z,100.00
2022-10-13T09:27:50.862Z,100.00
2022-10-13T09:30:30.725Z,100.00
2022-10-13T09:33:18.362Z,100.00
2022-10-13T09:35:48.228Z,100.00
2022-10-13T09:38:20.130Z,100.00
2022-10-13T09:40:59.604Z,100.00
2022-10-13T09:43:32.618Z,100.00
2022-10-13T09:46:02.539Z,100.00
2022-10-13T09:48:32.503Z,100.00
2022-10-13T09:51:01.070Z,100.00
2022-10-13T09:53:33.110Z,100.00
2022-10-13T09:56:16.630Z,100.00
2022-10-13T09:58:50.038Z,100.00
2022-10-13T10:01:22.959Z,96.78
2022-10-13T10:03:52.106Z,100.00
2022-10-13T10:06:26.897Z,100.00
2022-10-13T10:09:04.181Z,100.00
2022-10-13T10:11:35.885Z,100.00
2022-10-13T10:14:15.564Z,100.00
2022-10-13T10:16:46.644Z,100.00
2022-10-13T10:19:19.577Z,100.00
2022-10-13T10:21:52.658Z,98.52
2022-10-13T10:24:25.939Z,100.00
2022-10-13T10:26:57.211Z,88.57
2022-10-13T10:29:31.459Z,83.58
2022-10-13T10:32:06.675Z,100.00
2022-10-13T10:34:41.076Z,100.00
2022-10-13T10:37:19.898Z,100.00
2022-10-13T10:39:57.381Z,100.00
2022-10-13T10:43:01.785Z,86.20
2022-10-13T10:45:34.953Z,98.77
2022-10-13T10:48:07.398Z,90.79
2022-10-13T10:50:36.088Z,96.99
2022-10-13T10:53:08.697Z,82.01
2022-10-13T10:55:40.498Z,74.54
2022-10-13T10:58:21.151Z,79.17
2022-10-13T11:00:55.394Z,79.94
2022-10-13T11:03:31.382Z,86.85
2022-10-13T11:06:03.012Z,87.00
2022-10-13T11:08:41.116Z,74.25
2022-10-13T11:11:38.337Z,77.10
2022-10-13T11:14:31.979Z,67.82
2022-10-13T11:17:11.875Z,64.26
2022-10-13T11:19:41.384Z,58.70
2022-10-13T11:22:14.483Z,69.20
2022-10-13T11:24:50.615Z,67.47
2022-10-13T11:27:28.312Z,65.46
2022-10-13T11:29:58.302Z,64.40
2022-10-13T11:32:59.689Z,57.21
2022-10-13T11:35:31.542Z,67.07
2022-10-13T11:38:24.357Z,65.56
2022-10-13T11:41:12.405Z,69.40
2022-10-13T11:43:49.413Z,60.13
2022-10-13T11:46:25.153Z,58.45
2022-10-13T11:49:31.828Z,64.98
2022-10-13T11:52:16.078Z,60.06
2022-10-13T11:54:49.766Z,66.20
2022-10-13T11:57:20.256Z,62.45
2022-10-13T11:59:49.922Z,61.71
2022-10-13T12:02:19.573Z,59.24
2022-10-13T12:05:02.882Z,55.86
2022-10-13T12:07:34.801Z,53.51
2022-10-13T12:10:04.962Z,56.91
2022-10-13T12:12:33.212Z,57.40
2022-10-13T12:15:05.990Z,59.60
2022-10-13T12:17:38.829Z,61.00
2022-10-13T12:20:22.348Z,63.46
2022-10-13T12:22:50.897Z,63.48
2022-10-13T12:25:20.525Z,58.64
2022-10-13T12:27:50.741Z,61.17
2022-10-13T12:30:23.573Z,61.69
2022-10-13T12:32:52.958Z,56.80
2022-10-13T12:35:25.248Z,61.63
2022-10-13T12:37:54.243Z,59.42
2022-10-13T12:40:23.375Z,58.05
2022-10-13T12:42:51.961Z,59.39
2022-10-13T12:45:22.017Z,56.14
2022-10-13T12:47:51.945Z,61.62
2022-10-13T12:50:40.533Z,62.44
2022-10-13T12:53:20.458Z,56.35
2022-10-13T12:55:58.903Z,56.92
2022-10-13T12:58:29.444Z,53.21
2022-10-13T13:01:10.277Z,52.50
2022-10-13T13:03:39.586Z,50.55
2022-10-13T13:06:12.315Z,49.18
2022-10-13T13:08:41.854Z,51.76
2022-10-13T13:11:21.803Z,52.29
2022-10-13T13:13:50.218Z,53.52
2022-10-13T13:16:19.903Z,52.01
2022-10-13T13:18:48.890Z,48.62
2022-10-13T13:21:19.951Z,55.26
2022-10-13T13:23:52.914Z,52.27
2022-10-13T13:26:23.974Z,48.45
2022-10-13T13:28:53.941Z,52.84
2022-10-13T13:31:23.855Z,59.72
2022-10-13T13:33:52.306Z,61.76
2022-10-13T13:36:23.307Z,62.64
2022-10-13T13:38:51.811Z,60.07
2022-10-13T13:41:20.622Z,62.04
2022-10-13T13:43:49.252Z,60.12
2022-10-13T13:46:19.149Z,58.18
2022-10-13T13:48:47.458Z,64.25
2022-10-13T13:51:16.786Z,59.63
2022-10-13T13:53:46.500Z,55.25
2022-10-13T13:56:15.412Z,55.26
2022-10-13T13:58:43.866Z,61.83
2022-10-13T14:01:13.027Z,59.55
2022-10-13T14:03:41.633Z,63.79
2022-10-13T14:06:09.987Z,64.24
2022-10-13T14:08:42.319Z,60.17
2022-10-13T14:11:12.954Z,69.43
2022-10-13T14:13:41.219Z,65.87
2022-10-13T14:16:13.805Z,59.97
2022-10-13T14:18:42.033Z,64.70
2022-10-13T14:21:11.016Z,61.23
2022-10-13T14:23:39.788Z,59.88
2022-10-13T14:26:09.602Z,69.15
2022-10-13T14:28:41.491Z,66.94
2022-10-13T14:31:10.126Z,66.30
2022-10-13T14:33:38.664Z,64.74
2022-10-13T14:36:08.174Z,63.71
2022-10-13T14:38:36.520Z,62.82
2022-10-13T14:41:06.466Z,66.55
2022-10-13T14:43:34.692Z,63.03
2022-10-13T14:46:04.894Z,64.55
2022-10-13T14:48:33.413Z,67.24
2022-10-13T14:51:05.019Z,71.15
2022-10-13T14:53:34.528Z,72.95
2022-10-13T14:56:02.860Z,74.08
2022-10-13T14:58:32.070Z,71.97
2022-10-13T15:01:00.269Z,77.33
2022-10-13T15:03:29.876Z,78.27
2022-10-13T15:05:58.123Z,73.85
2022-10-13T15:08:26.419Z,74.68
2022-10-13T15:10:59.868Z,80.75
2022-10-13T15:13:28.239Z,71.39
2022-10-13T15:15:57.565Z,73.21
2022-10-13T15:18:29.213Z,70.89
2022-10-13T15:20:59.225Z,69.84
2022-10-13T15:23:27.884Z,68.35
2022-10-13T15:25:57.775Z,68.74
2022-10-13T15:28:27.928Z,68.67
2022-10-13T15:30:56.616Z,70.89
2022-10-13T15:33:24.947Z,73.57
2022-10-13T15:35:53.769Z,83.94
2022-10-13T15:38:23.754Z,100.00
2022-10-13T15:40:52.069Z,95.20
2022-10-13T15:43:20.415Z,100.00
2022-10-13T15:45:55.694Z,100.00
2022-10-13T15:48:24.283Z,91.45
2022-10-13T15:50:52.599Z,94.61
2022-10-13T15:53:20.869Z,100.00
2022-10-13T15:55:50.501Z,98.65
2022-10-13T15:58:18.984Z,94.40
2022-10-13T16:00:47.259Z,92.68
2022-10-13T16:03:17.023Z,100.00
2022-10-13T16:05:46.303Z,94.80
2022-10-13T16:08:15.209Z,93.87
2022-10-13T16:10:44.229Z,93.49
2022-10-13T16:13:16.115Z,95.28
2022-10-13T16:15:44.387Z,100.00
2022-10-13T16:18:12.606Z,100.00
2022-10-13T16:20:45.289Z,100.00
2022-10-13T16:23:13.511Z,100.00
2022-10-13T16:25:41.744Z,100.00
2022-10-13T16:28:09.966Z,100.00
2022-10-13T16:30:39.544Z,100.00
2022-10-13T16:33:07.778Z,100.00
2022-10-13T16:35:35.985Z,100.00
2022-10-13T16:38:04.668Z,100.00
2022-10-13T16:40:32.910Z,100.00
2022-10-13T16:43:01.163Z,100.00
2022-10-13T16:45:47.879Z,100.00
2022-10-13T16:48:18.949Z,100.00
2022-10-13T16:50:47.189Z,100.00
2022-10-13T16:53:15.490Z,100.00
2022-10-13T16:55:44.177Z,100.00
2022-10-13T16:58:12.488Z,100.00
2022-10-13T17:00:41.101Z,100.00
2022-10-13T17:03:12.856Z,100.00
2022-10-13T17:05:42.399Z,100.00
2022-10-13T17:08:10.627Z,100.00
2022-10-13T17:10:38.861Z,100.00
2022-10-13T17:13:07.645Z,100.00
2022-10-13T17:15:35.916Z,100.00
2022-10-13T17:18:04.373Z,100.00
2022-10-13T17:20:32.608Z,100.00
2022-10-13T17:23:02.146Z,100.00
2022-10-13T17:25:30.332Z,100.00
2022-10-13T17:27:58.515Z,100.00
2022-10-13T17:30:26.701Z,100.00
2022-10-13T17:35:40.611Z,100.00
2022-10-13T17:38:10.136Z,100.00
2022-10-13T17:40:38.425Z,100.00
2022-10-13T17:43:06.639Z,100.00
2022-10-13T17:45:35.004Z,100.00
2022-10-13T17:48:03.226Z,100.00
2022-10-13T17:50:31.567Z,100.00
2022-10-13T17:53:00.003Z,100.00
2022-10-13T17:55:31.205Z,100.00
2022-10-13T17:57:59.504Z,100.00
2022-10-13T18:00:27.739Z,100.00
2022-10-13T18:02:55.989Z,100.00
2022-10-13T18:05:25.222Z,100.00
2022-10-13T18:07:57.970Z,100.00
2022-10-13T18:10:26.282Z,100.00
2022-10-13T18:12:55.879Z,100.00
2022-10-13T18:15:24.112Z,100.00
2022-10-13T18:17:52.323Z,100.00
2022-10-13T18:20:20.619Z,100.00
2022-10-13T18:22:49.671Z,100.00
2022-10-13T18:25:33.143Z,100.00
2022-10-13T18:28:02.947Z,100.00
2022-10-13T18:30:31.306Z,100.00
2022-10-13T18:32:59.506Z,100.00
2022-10-13T18:35:32.149Z,100.00
2022-10-13T18:38:00.673Z,100.00
2022-10-13T18:40:29.482Z,100.00
2022-10-13T18:42:57.742Z,100.00
2022-10-13T18:45:27.282Z,100.00
2022-10-13T18:47:55.502Z,100.00
2022-10-13T18:50:23.717Z,100.00
2022-10-13T18:52:51.923Z,100.00
2022-10-13T18:55:20.190Z,100.00
2022-10-13T18:57:48.388Z,100.00
2022-10-13T19:00:17.065Z,100.00
2022-10-13T19:02:46.706Z,100.00
2022-10-13T19:05:15.122Z,100.00
2022-10-13T19:07:43.482Z,100.00
2022-10-13T19:10:11.719Z,100.00
2022-10-13T19:12:40.037Z,100.00
2022-10-13T19:15:09.277Z,100.00
2022-10-13T19:17:37.569Z,100.00
2022-10-13T19:20:07.994Z,100.00
2022-10-13T19:22:36.262Z,100.00
2022-10-13T19:25:05.138Z,100.00
2022-10-13T19:27:33.464Z,100.00
2022-10-13T19:30:01.852Z,100.00
2022-10-13T19:32:30.136Z,100.00
2022-10-13T19:34:58.470Z,100.00
2022-10-13T19:37:28.335Z,100.00
2022-10-13T19:39:56.716Z,100.00
2022-10-13T19:42:25.302Z,100.00
2022-10-13T19:44:53.654Z,100.00
2022-10-13T19:47:22.457Z,100.00
2022-10-13T19:49:51.283Z,100.00
2022-10-13T19:52:19.677Z,100.00
2022-10-13T19:54:49.355Z,100.00
2022-10-13T19:57:18.007Z,100.00
2022-10-13T19:59:47.773Z,100.00
2022-10-13T20:02:16.575Z,100.00
2022-10-13T20:04:44.933Z,100.00
2022-10-13T20:07:13.188Z,100.00
2022-10-13T20:09:41.594Z,100.00
2022-10-13T20:12:11.791Z,100.00
2022-10-13T20:14:40.013Z,100.00
2022-10-13T20:17:08.221Z,100.00
2022-10-13T20:19:36.430Z,100.00
2022-10-13T20:22:04.760Z,100.00
2022-10-13T20:24:33.122Z,100.00
2022-10-13T20:27:01.338Z,100.00
2022-10-13T20:29:31.203Z,100.00
2022-10-13T20:31:59.400Z,100.00
2022-10-13T20:34:27.773Z,100.00
2022-10-13T20:36:56.257Z,100.00
2022-10-13T20:39:24.524Z,100.00
2022-10-13T20:41:52.887Z,100.00
2022-10-13T20:44:21.105Z,100.00
2022-10-13T20:46:50.718Z,100.00
2022-10-13T20:49:19.256Z,100.00
2022-10-13T20:51:47.607Z,100.00
2022-10-13T20:54:16.791Z,100.00
2022-10-13T20:56:45.139Z,100.00
2022-10-13T20:59:15.503Z,100.00
2022-10-13T21:01:43.813Z,100.00
2022-10-13T21:04:15.074Z,100.00
2022-10-13T21:06:43.571Z,100.00
2022-10-13T21:09:12.050Z,100.00
2022-10-13T21:14:27.911Z,100.00
2022-10-13T21:17:15.889Z,100.00
2022-10-13T21:19:45.539Z,100.00
2022-10-13T21:22:13.862Z,100.00
2022-10-13T21:24:42.148Z,100.00
2022-10-13T21:27:10.447Z,100.00
2022-10-13T21:29:38.663Z,100.00
2022-10-13T21:32:07.153Z,100.00
2022-10-13T21:34:35.426Z,100.00
2022-10-13T21:37:05.072Z,100.00
2022-10-13T21:39:33.338Z,100.00
2022-10-13T21:42:01.576Z,100.00
2022-10-13T21:44:30.982Z,100.00
2022-10-13T21:46:59.413Z,100.00
2022-10-13T21:49:27.639Z,100.00
2022-10-13T21:51:55.882Z,100.00
2022-10-13T21:54:25.664Z,100.00
2022-10-13T21:56:54.018Z,100.00
2022-10-13T21:59:22.297Z,100.00
2022-10-13T22:01:50.559Z,100.00
2022-10-13T22:04:18.841Z,100.00
2022-10-13T22:06:47.137Z,100.00
2022-10-13T22:09:15.700Z,100.00
2022-10-13T22:11:45.501Z,100.00
2022-10-13T22:14:14.092Z,100.00
2022-10-13T22:16:44.021Z,100.00
2022-10-13T22:19:12.661Z,100.00
2022-10-13T22:21:43.794Z,100.00
2022-10-13T22:24:14.344Z,100.00
2022-10-13T22:26:42.752Z,100.00
2022-10-13T22:29:14.722Z,100.00
2022-10-13T22:31:43.039Z,100.00
2022-10-13T22:34:12.909Z,100.00
2022-10-13T22:36:44.810Z,100.00
2022-10-13T22:39:14.323Z,100.00
2022-10-13T22:41:42.691Z,100.00
2022-10-13T22:44:12.402Z,100.00
2022-10-13T22:46:41.134Z,100.00
2022-10-13T22:49:10.110Z,100.00
2022-10-13T22:51:38.459Z,100.00
2022-10-13T22:54:07.062Z,100.00
2022-10-13T22:56:35.980Z,100.00
2022-10-13T22:59:07.326Z,100.00
2022-10-13T23:01:37.167Z,100.00
2022-10-13T23:04:06.238Z,100.00
2022-10-13T23:06:35.462Z,100.00
2022-10-13T23:09:05.819Z,100.00
2022-10-13T23:11:34.171Z,100.00
2022-10-13T23:14:02.689Z,100.00
2022-10-13T23:16:31.585Z,100.00
2022-10-13T23:19:01.409Z,100.00
2022-10-13T23:21:30.904Z,100.00
2022-10-13T23:24:00.658Z,100.00
2022-10-13T23:26:30.095Z,100.00
2022-10-13T23:28:59.013Z,100.00
2022-10-13T23:31:28.192Z,100.00
2022-10-13T23:33:56.875Z,100.00
2022-10-13T23:36:28.373Z,100.00
2022-10-13T23:38:56.948Z,100.00
2022-10-13T23:41:25.500Z,100.00
2022-10-13T23:43:53.789Z,100.00
2022-10-13T23:46:22.801Z,100.00
2022-10-13T23:48:51.285Z,100.00
2022-10-13T23:51:21.122Z,100.00
2022-10-13T23:53:50.859Z,100.00
2022-10-13T23:56:19.673Z,100.00
2022-10-13T23:58:48.180Z,100.00
